Time;durP1;ratioP1;P1;durP2;ratioP2;P2;SDS_P1;SDS_P2;PMS_P1;PMS_P2;Temp;Humidity;BMP_temperature;BMP_pressure;BME280_temperature;BME280_humidity;BME280_pressure;Samples;Min_cycle;Max_cycle;Signal;HPM_P1;HPM_P2
2023/02/19 00:01:30;;;;;;;1999.90;999.90;;;9.60;99.90;;;;;;5027361;28;20496;-68
2023/02/19 00:03:58;;;;;;;1999.90;999.90;;;9.60;99.90;;;;;;5027671;28;20499;-68
2023/02/19 00:06:26;;;;;;;1999.90;999.90;;;9.60;99.90;;;;;;5027730;28;20449;-68
2023/02/19 00:08:54;;;;;;;1999.90;999.90;;;9.60;99.90;;;;;;5027741;28;20453;-68
2023/02/19 00:11:23;;;;;;;1999.90;999.90;;;9.60;99.90;;;;;;5027594;28;20631;-68
2023/02/19 00:13:52;;;;;;;1999.90;999.90;;;9.60;99.90;;;;;;5041408;28;21018;-70
2023/02/19 00:16:21;;;;;;;1999.90;999.90;;;9.70;99.90;;;;;;5037482;28;20449;-68
2023/02/19 00:18:49;;;;;;;1999.90;999.90;;;9.60;99.90;;;;;;5028941;28;20461;-70
2023/02/19 00:21:17;;;;;;;1999.90;999.90;;;9.60;99.90;;;;;;5029656;28;20455;-70
2023/02/19 00:23:47;;;;;;;1999.90;999.90;;;9.50;99.90;;;;;;5026935;28;20445;-70
2023/02/19 00:26:14;;;;;;;1999.90;999.90;;;9.60;99.90;;;;;;5027324;28;20455;-69
2023/02/19 00:28:41;;;;;;;1999.90;999.90;;;9.60;99.90;;;;;;5026525;28;20457;-69
2023/02/19 00:31:12;;;;;;;1999.90;999.90;;;9.60;99.90;;;;;;5027342;28;20449;-68
2023/02/19 00:33:38;;;;;;;1999.90;999.90;;;9.60;99.90;;;;;;5025542;28;20488;-68
2023/02/19 00:36:07;;;;;;;1999.90;999.90;;;9.60;99.90;;;;;;5027267;28;20471;-69
2023/02/19 00:38:37;;;;;;;1999.90;999.90;;;9.70;99.90;;;;;;5026947;28;20441;-69
2023/02/19 00:41:17;;;;;;;1999.90;999.90;;;9.60;99.90;;;;;;5026883;28;20449;-68
2023/02/19 00:43:45;;;;;;;1999.90;999.90;;;9.50;99.90;;;;;;5026541;28;20445;-70
2023/02/19 00:46:12;;;;;;;1999.90;999.90;;;9.50;99.90;;;;;;5037229;28;20455;-70
2023/02/19 00:48:38;;;;;;;1999.90;999.90;;;9.40;99.90;;;;;;5046254;28;20456;-70
2023/02/19 00:51:07;;;;;;;1999.90;999.90;;;9.40;99.90;;;;;;5046936;28;20457;-68
2023/02/19 00:53:33;;;;;;;1999.90;999.90;;;9.50;99.90;;;;;;5045377;28;20518;-68
2023/02/19 00:56:00;;;;;;;1999.90;999.90;;;9.50;99.90;;;;;;5047195;28;20439;-68
2023/02/19 00:58:27;;;;;;;1999.90;999.90;;;9.50;99.90;;;;;;5045999;28;20444;-69
2023/02/19 01:00:54;;;;;;;1999.90;999.90;;;9.60;99.90;;;;;;5030066;28;20465;-68
2023/02/19 01:03:21;;;;;;;1999.90;999.90;;;9.60;99.90;;;;;;5025372;28;20666;-69
2023/02/19 01:05:48;;;;;;;1999.90;999.90;;;9.70;99.90;;;;;;5032684;28;20502;-69
2023/02/19 01:08:17;;;;;;;1999.90;999.90;;;9.70;99.90;;;;;;5026860;28;20869;-69
2023/02/19 01:10:44;;;;;;;1999.90;999.90;;;9.70;99.90;;;;;;5026447;28;20453;-68
2023/02/19 01:13:11;;;;;;;1999.90;999.90;;;9.70;99.90;;;;;;5025635;28;20485;-69
2023/02/19 01:15:38;;;;;;;1999.90;999.90;;;9.80;99.90;;;;;;5026898;28;20459;-69
2023/02/19 01:18:05;;;;;;;1999.90;999.90;;;9.80;99.90;;;;;;5026202;28;20454;-70
2023/02/19 01:20:32;;;;;;;1999.90;999.90;;;9.70;99.90;;;;;;5025598;28;20441;-69
2023/02/19 01:22:59;;;;;;;1999.90;999.90;;;9.70;99.90;;;;;;5025373;28;20515;-68
2023/02/19 01:25:27;;;;;;;1999.90;999.90;;;9.70;99.90;;;;;;5026258;28;20453;-69
2023/02/19 01:27:54;;;;;;;1999.90;999.90;;;9.70;99.90;;;;;;5027032;28;20453;-69
2023/02/19 01:30:20;;;;;;;1999.90;999.90;;;9.70;99.90;;;;;;5026304;28;20444;-68
2023/02/19 01:32:47;;;;;;;1999.90;999.90;;;9.70;99.90;;;;;;5045911;28;20491;-68
2023/02/19 01:35:14;;;;;;;1999.90;999.90;;;9.70;99.90;;;;;;5037433;28;20461;-69
2023/02/19 01:37:41;;;;;;;1999.90;999.90;;;9.70;99.90;;;;;;5026070;28;20456;-69
2023/02/19 01:40:08;;;;;;;1999.90;999.90;;;9.70;99.90;;;;;;5026421;28;20445;-66
2023/02/19 01:42:36;;;;;;;1999.90;999.90;;;9.70;99.90;;;;;;5025158;28;20464;-67
2023/02/19 01:45:25;;;;;;;1999.90;999.90;;;9.70;99.90;;;;;;5037490;28;20452;-68
2023/02/19 01:47:58;;;;;;;1999.90;999.90;;;9.60;99.90;;;;;;5045823;28;20455;-67
2023/02/19 01:50:28;;;;;;;1999.90;999.90;;;9.70;99.90;;;;;;5030035;28;20818;-67
2023/02/19 01:52:55;;;;;;;1999.90;999.90;;;9.70;99.90;;;;;;5026237;28;20853;-69
2023/02/19 01:55:23;;;;;;;1999.90;999.90;;;9.70;99.90;;;;;;5026731;28;20452;-68
2023/02/19 01:57:55;;;;;;;1999.90;999.90;;;9.70;99.90;;;;;;5028260;28;20448;-67
2023/02/19 02:00:23;;;;;;;1999.90;999.90;;;9.80;99.90;;;;;;5048908;28;20451;-67
2023/02/19 02:02:54;;;;;;;1999.90;999.90;;;9.80;99.90;;;;;;5049700;28;20507;-68
2023/02/19 02:05:31;;;;;;;1999.90;999.90;;;9.70;99.90;;;;;;5034665;28;20453;-68
2023/02/19 02:10:44;;;;;;;1999.90;999.90;;;9.70;99.90;;;;;;5030567;28;20506;-69
2023/02/19 02:13:12;;;;;;;1999.90;999.90;;;9.70;99.90;;;;;;5039325;28;21220;-68
2023/02/19 02:15:49;;;;;;;1999.90;999.90;;;9.70;99.90;;;;;;5050858;28;20859;-67
2023/02/19 02:18:24;;;;;;;1999.90;999.90;;;9.70;99.90;;;;;;5050620;28;20439;-68
2023/02/19 02:21:11;;;;;;;1999.90;999.90;;;9.60;99.90;;;;;;5051869;28;20956;-69
2023/02/19 02:24:01;;;;;;;1999.90;999.90;;;9.60;99.90;;;;;;5050962;28;20463;-68
2023/02/19 02:26:42;;;;;;;1999.90;999.90;;;9.60;99.90;;;;;;5051163;28;20447;-68
2023/02/19 02:29:36;;;;;;;1999.90;999.90;;;9.50;99.90;;;;;;5048719;28;20466;-69
2023/02/19 02:32:10;;;;;;;1999.90;999.90;;;9.60;99.90;;;;;;5050536;28;20468;-69
2023/02/19 02:34:41;;;;;;;1999.90;999.90;;;9.60;99.90;;;;;;5049813;28;20475;-67
2023/02/19 02:37:10;;;;;;;1999.90;999.90;;;9.50;99.90;;;;;;5050379;28;20455;-69
2023/02/19 02:39:37;;;;;;;1999.90;999.90;;;9.50;99.90;;;;;;5050613;28;20451;-68
2023/02/19 02:47:43;;;;;;;1999.90;999.90;;;9.50;99.90;;;;;;5049902;28;20484;-68
2023/02/19 02:50:14;;;;;;;1999.90;999.90;;;9.50;99.90;;;;;;5049782;28;20451;-68
2023/02/19 02:55:29;;;;;;;1999.90;999.90;;;9.50;99.90;;;;;;5028774;28;20437;-69
2023/02/19 02:57:56;;;;;;;1999.90;999.90;;;9.50;99.90;;;;;;5051342;28;20440;-68
2023/02/19 03:02:09;;;;;;;1999.90;999.90;;;9.60;99.90;;;;;;5049372;28;20450;-69
2023/02/19 03:03:16;;;;;;;1999.90;999.90;;;9.60;99.90;;;;;;5030488;28;20464;-68
2023/02/19 03:05:53;;;;;;;1999.90;999.90;;;9.50;99.90;;;;;;5031734;28;20441;-69
2023/02/19 03:08:25;;;;;;;1999.90;999.90;;;9.50;99.90;;;;;;5031482;28;20482;-69
2023/02/19 03:10:55;;;;;;;1999.90;999.90;;;9.50;99.90;;;;;;5031329;28;20644;-68
2023/02/19 03:19:20;;;;;;;1999.90;999.90;;;9.50;99.90;;;;;;5032679;28;20468;-68
2023/02/19 03:21:52;;;;;;;1999.90;999.90;;;9.50;99.90;;;;;;5031016;28;20475;-69
2023/02/19 03:27:08;;;;;;;1999.90;999.90;;;9.40;99.90;;;;;;5031238;28;20490;-67
2023/02/19 03:29:37;;;;;;;1999.90;999.90;;;9.40;99.90;;;;;;5031089;28;20452;-69
2023/02/19 03:32:08;;;;;;;1999.90;999.90;;;9.50;99.90;;;;;;5031614;28;20469;-67
2023/02/19 03:34:41;;;;;;;1999.90;999.90;;;9.50;99.90;;;;;;5029589;28;20487;-68
2023/02/19 03:37:13;;;;;;;1999.90;999.90;;;9.50;99.90;;;;;;5031745;28;20440;-67
2023/02/19 03:39:44;;;;;;;1999.90;999.90;;;9.40;99.90;;;;;;5031409;28;20463;-67
2023/02/19 03:42:20;;;;;;;1999.90;999.90;;;9.50;99.90;;;;;;5030406;28;20477;-67
2023/02/19 03:45:00;;;;;;;1999.90;999.90;;;9.50;99.90;;;;;;5029891;28;20444;-69
2023/02/19 03:47:30;;;;;;;1999.90;999.90;;;9.50;99.90;;;;;;5030790;28;20528;-68
2023/02/19 03:50:01;;;;;;;1999.90;999.90;;;9.50;99.90;;;;;;5030070;28;20453;-67
2023/02/19 03:52:37;;;;;;;1999.90;999.90;;;9.50;99.90;;;;;;5029035;28;20480;-68
2023/02/19 03:55:07;;;;;;;1999.90;999.90;;;9.50;99.90;;;;;;5030149;28;20480;-68
2023/02/19 03:57:44;;;;;;;1999.90;999.90;;;9.50;99.90;;;;;;5030263;28;20451;-68
2023/02/19 04:00:14;;;;;;;1999.90;999.90;;;9.50;99.90;;;;;;5010399;28;20536;-67
2023/02/19 04:02:45;;;;;;;1999.90;999.90;;;9.50;99.90;;;;;;5009076;28;20474;-68
2023/02/19 04:05:17;;;;;;;1999.90;999.90;;;9.50;99.90;;;;;;5010269;28;20434;-68
2023/02/19 04:07:48;;;;;;;1999.90;999.90;;;9.50;99.90;;;;;;5010540;28;20457;-69
2023/02/19 04:10:17;;;;;;;1999.90;999.90;;;9.50;99.90;;;;;;5011622;28;20457;-68
2023/02/19 04:12:48;;;;;;;1999.90;999.90;;;9.50;99.90;;;;;;5035283;28;20468;-68
2023/02/19 04:15:20;;;;;;;1999.90;999.90;;;9.50;99.90;;;;;;5049609;28;20490;-68
2023/02/19 04:17:53;;;;;;;1999.90;999.90;;;9.50;99.90;;;;;;5049458;28;20458;-67
2023/02/19 04:20:23;;;;;;;1999.90;999.90;;;9.50;99.90;;;;;;5049450;28;20451;-67
2023/02/19 04:22:50;;;;;;;1999.90;999.90;;;9.50;99.90;;;;;;5047501;28;20464;-67
2023/02/19 04:25:17;;;;;;;1999.90;999.90;;;9.50;99.90;;;;;;5031426;28;20445;-69
2023/02/19 04:27:45;;;;;;;1999.90;999.90;;;9.40;99.90;;;;;;5029735;28;20449;-67
2023/02/19 04:30:16;;;;;;;1999.90;999.90;;;9.50;99.90;;;;;;5029409;28;20449;-67
2023/02/19 04:32:43;;;;;;;1999.90;999.90;;;9.50;99.90;;;;;;5028028;28;20555;-69
2023/02/19 04:35:10;;;;;;;1999.90;999.90;;;9.50;99.90;;;;;;5028970;28;21058;-68
2023/02/19 04:37:38;;;;;;;1999.90;999.90;;;9.50;99.90;;;;;;5032279;28;20976;-69
2023/02/19 04:40:05;;;;;;;1999.90;999.90;;;9.50;99.90;;;;;;5049309;28;20443;-67
2023/02/19 04:42:32;;;;;;;1999.90;999.90;;;9.50;99.90;;;;;;5048067;28;20460;-68
2023/02/19 04:45:00;;;;;;;1999.90;999.90;;;9.50;99.90;;;;;;5049379;28;20574;-69
2023/02/19 04:47:26;;;;;;;1999.90;999.90;;;9.40;99.90;;;;;;5049211;28;20970;-67
2023/02/19 04:49:53;;;;;;;1999.90;999.90;;;9.40;99.90;;;;;;5049752;28;20456;-68
2023/02/19 04:52:20;;;;;;;1999.90;999.90;;;9.40;99.90;;;;;;5048870;28;20472;-69
2023/02/19 04:54:48;;;;;;;1999.90;999.90;;;9.30;99.90;;;;;;5040883;28;20476;-69
2023/02/19 04:57:15;;;;;;;1999.90;999.90;;;9.30;99.90;;;;;;5029182;28;20452;-68
2023/02/19 04:59:42;;;;;;;1999.90;999.90;;;9.30;99.90;;;;;;5029076;28;20456;-67
2023/02/19 05:02:09;;;;;;;1999.90;999.90;;;9.20;99.90;;;;;;5029099;28;20472;-68
2023/02/19 05:04:35;;;;;;;1999.90;999.90;;;9.20;99.90;;;;;;5028021;28;20437;-68
2023/02/19 05:07:02;;;;;;;1999.90;999.90;;;9.20;99.90;;;;;;5028912;28;20445;-67
2023/02/19 05:09:29;;;;;;;1999.90;999.90;;;9.20;99.90;;;;;;5028825;28;20449;-68
2023/02/19 05:11:57;;;;;;;1999.90;999.90;;;9.10;99.90;;;;;;5038926;28;20463;-68
2023/02/19 05:14:24;;;;;;;1999.90;999.90;;;9.10;99.90;;;;;;5048004;28;20483;-69
2023/02/19 05:16:50;;;;;;;1999.90;999.90;;;9.10;99.90;;;;;;5048953;28;20452;-68
2023/02/19 05:19:17;;;;;;;1999.90;999.90;;;9.10;99.90;;;;;;5043474;28;20458;-69
2023/02/19 05:21:44;;;;;;;1999.90;999.90;;;9.10;99.90;;;;;;5027829;28;20477;-69
2023/02/19 05:24:11;;;;;;;1999.90;999.90;;;9.10;99.90;;;;;;5026751;28;20447;-68
2023/02/19 05:26:37;;;;;;;1999.90;999.90;;;9.10;99.90;;;;;;5029101;28;21159;-67
2023/02/19 05:29:06;;;;;;;1999.90;999.90;;;9.10;99.90;;;;;;5047086;28;20456;-67
2023/02/19 05:31:33;;;;;;;1999.90;999.90;;;9.00;99.90;;;;;;5049490;28;20464;-68
2023/02/19 05:34:00;;;;;;;1999.90;999.90;;;9.10;99.90;;;;;;5049785;28;20484;-67
2023/02/19 05:36:26;;;;;;;1999.90;999.90;;;9.10;99.90;;;;;;5052979;28;20447;-68
2023/02/19 05:38:54;;;;;;;1999.90;999.90;;;9.10;99.90;;;;;;5052869;28;20450;-68
2023/02/19 05:41:22;;;;;;;1999.90;999.90;;;9.00;99.90;;;;;;5041405;28;20795;-68
2023/02/19 05:43:50;;;;;;;1999.90;999.90;;;9.10;99.90;;;;;;5032760;28;20455;-68
2023/02/19 05:46:20;;;;;;;1999.90;999.90;;;9.10;99.90;;;;;;5032137;28;20823;-69
2023/02/19 05:48:48;;;;;;;1999.90;999.90;;;9.10;99.90;;;;;;5032649;28;20440;-68
2023/02/19 05:51:16;;;;;;;1999.90;999.90;;;9.10;99.90;;;;;;5032253;28;20935;-70
2023/02/19 05:53:44;;;;;;;1999.90;999.90;;;9.10;99.90;;;;;;5030785;28;20455;-69
2023/02/19 05:56:34;;;;;;;1999.90;999.90;;;9.10;99.90;;;;;;5032101;28;20939;-68
2023/02/19 05:59:05;;;;;;;1999.90;999.90;;;9.10;99.90;;;;;;5042805;28;20805;-68
2023/02/19 06:01:34;;;;;;;1999.90;999.90;;;9.10;99.90;;;;;;5051598;28;20473;-67
2023/02/19 06:04:01;;;;;;;1999.90;999.90;;;9.10;99.90;;;;;;5050829;28;20458;-69
2023/02/19 06:06:27;;;;;;;1999.90;999.90;;;9.10;99.90;;;;;;5052139;28;20448;-69
2023/02/19 06:08:54;;;;;;;1999.90;999.90;;;9.10;99.90;;;;;;5052003;28;20439;-69
2023/02/19 06:11:22;;;;;;;1999.90;999.90;;;9.10;99.90;;;;;;5051807;28;20447;-69
2023/02/19 06:13:49;;;;;;;1999.90;999.90;;;9.20;99.90;;;;;;5034815;28;20449;-68
2023/02/19 06:16:17;;;;;;;1999.90;999.90;;;9.20;99.90;;;;;;5032000;28;20506;-70
2023/02/19 06:18:45;;;;;;;1999.90;999.90;;;9.20;99.90;;;;;;5032028;28;20456;-69
2023/02/19 06:21:13;;;;;;;1999.90;999.90;;;9.10;99.90;;;;;;5032108;28;20445;-69
2023/02/19 06:23:40;;;;;;;1999.90;999.90;;;9.20;99.90;;;;;;5030406;28;20456;-68
2023/02/19 06:26:08;;;;;;;1999.90;999.90;;;9.20;99.90;;;;;;5031912;28;20962;-68
2023/02/19 06:28:35;;;;;;;1999.90;999.90;;;9.10;99.90;;;;;;5032842;28;20501;-67
2023/02/19 06:31:02;;;;;;;1999.90;999.90;;;9.20;99.90;;;;;;5031450;28;20456;-68
2023/02/19 06:33:29;;;;;;;1999.90;999.90;;;9.20;99.90;;;;;;5030381;28;21001;-69
2023/02/19 06:36:00;;;;;;;1999.90;999.90;;;9.20;99.90;;;;;;5031512;28;20484;-68
2023/02/19 06:38:28;;;;;;;1999.90;999.90;;;9.20;99.90;;;;;;5031931;28;20459;-69
2023/02/19 06:40:54;;;;;;;1999.90;999.90;;;9.30;99.90;;;;;;5031390;28;20445;-69
2023/02/19 06:43:21;;;;;;;1999.90;999.90;;;9.30;99.90;;;;;;5030214;28;20478;-69
2023/02/19 06:45:48;;;;;;;1999.90;999.90;;;9.30;99.90;;;;;;5030596;28;20453;-69
2023/02/19 06:48:15;;;;;;;1999.90;999.90;;;9.40;99.90;;;;;;5031553;28;20440;-68
2023/02/19 06:50:42;;;;;;;1999.90;999.90;;;9.40;99.90;;;;;;5031210;28;20455;-68
2023/02/19 06:53:10;;;;;;;1999.90;999.90;;;9.40;99.90;;;;;;5030346;28;20901;-69
2023/02/19 06:55:39;;;;;;;1999.90;999.90;;;9.50;99.90;;;;;;5031562;28;20487;-67
2023/02/19 06:58:06;;;;;;;1999.90;999.90;;;9.50;99.90;;;;;;5031147;28;20495;-68
2023/02/19 07:00:33;;;;;;;1999.90;999.90;;;9.50;99.90;;;;;;5030734;28;20453;-67
2023/02/19 07:03:00;;;;;;;1999.90;999.90;;;9.50;99.90;;;;;;5030168;28;21232;-70
2023/02/19 07:05:27;;;;;;;1999.90;999.90;;;9.50;99.90;;;;;;5030926;28;20464;-68
2023/02/19 07:07:54;;;;;;;1999.90;999.90;;;9.60;99.90;;;;;;5031594;28;20453;-67
2023/02/19 07:10:22;;;;;;;1999.90;999.90;;;9.60;99.90;;;;;;5031560;28;20981;-69
2023/02/19 07:12:49;;;;;;;1999.90;999.90;;;9.70;99.90;;;;;;5040362;28;20464;-69
2023/02/19 07:15:15;;;;;;;1999.90;999.90;;;9.70;99.90;;;;;;5051128;28;20487;-69
2023/02/19 07:17:42;;;;;;;1999.90;999.90;;;9.70;99.90;;;;;;5050055;28;21128;-69
2023/02/19 07:20:09;;;;;;;1999.90;999.90;;;9.70;99.90;;;;;;5049705;28;20454;-69
2023/02/19 07:22:36;;;;;;;1999.90;999.90;;;9.70;99.90;;;;;;5048150;28;20468;-68
2023/02/19 07:25:03;;;;;;;1999.90;999.90;;;9.80;99.90;;;;;;5049130;28;20450;-70
2023/02/19 07:27:31;;;;;;;1999.90;999.90;;;9.70;99.90;;;;;;5051252;28;20454;-69
2023/02/19 07:29:58;;;;;;;1999.90;999.90;;;9.80;99.90;;;;;;5050272;28;20457;-67
2023/02/19 07:32:25;;;;;;;1999.90;999.90;;;9.80;99.90;;;;;;5050357;28;20476;-69
2023/02/19 07:34:52;;;;;;;1999.90;999.90;;;9.80;99.90;;;;;;5052344;28;20880;-68
2023/02/19 07:37:19;;;;;;;1999.90;999.90;;;9.80;99.90;;;;;;5050463;28;20447;-68
2023/02/19 07:39:45;;;;;;;1999.90;999.90;;;9.80;99.90;;;;;;5050086;28;20452;-69
2023/02/19 07:42:12;;;;;;;1999.90;999.90;;;9.80;99.90;;;;;;5049666;28;20475;-68
2023/02/19 07:44:40;;;;;;;1999.90;999.90;;;9.80;99.90;;;;;;5040331;28;20445;-68
2023/02/19 07:47:07;;;;;;;1999.90;999.90;;;9.90;99.90;;;;;;5030200;28;20472;-68
2023/02/19 07:49:34;;;;;;;1999.90;999.90;;;9.90;99.90;;;;;;5030065;28;20445;-69
2023/02/19 07:52:01;;;;;;;1999.90;999.90;;;9.90;99.90;;;;;;5030226;28;20473;-70
2023/02/19 07:54:28;;;;;;;1999.90;999.90;;;9.90;99.90;;;;;;5029527;28;20456;-67
2023/02/19 07:56:55;;;;;;;1999.90;999.90;;;9.90;99.90;;;;;;5029724;28;20548;-68
2023/02/19 07:59:21;;;;;;;1999.90;999.90;;;9.90;99.90;;;;;;5029913;28;20456;-68
2023/02/19 08:04:34;;;;;;;1999.90;999.90;;;9.90;99.90;;;;;;4998113;28;20434;-69
2023/02/19 08:07:01;;;;;;;1999.90;999.90;;;9.90;99.90;;;;;;5029625;28;20823;-69
2023/02/19 08:09:28;;;;;;;1999.90;999.90;;;9.90;99.90;;;;;;5030522;28;20444;-67
2023/02/19 08:14:39;;;;;;;1999.90;999.90;;;9.80;99.90;;;;;;5009215;28;20437;-70
2023/02/19 08:17:07;;;;;;;1999.90;999.90;;;9.90;99.90;;;;;;5010338;28;20446;-69
2023/02/19 08:19:34;;;;;;;1999.90;999.90;;;9.90;99.90;;;;;;5009916;28;20446;-70
2023/02/19 08:22:01;;;;;;;1999.90;999.90;;;9.80;99.90;;;;;;5010024;28;20473;-71
2023/02/19 08:24:27;;;;;;;1999.90;999.90;;;9.90;99.90;;;;;;5008895;28;20446;-69
2023/02/19 08:26:54;;;;;;;1999.90;999.90;;;9.90;99.90;;;;;;5010548;28;20464;-65
2023/02/19 08:29:21;;;;;;;1999.90;999.90;;;9.90;99.90;;;;;;5017583;28;20482;-68
2023/02/19 08:31:48;;;;;;;1999.90;999.90;;;9.90;99.90;;;;;;5029198;28;20990;-70
2023/02/19 08:34:16;;;;;;;1999.90;999.90;;;9.90;99.90;;;;;;5028572;28;20456;-70
2023/02/19 08:36:43;;;;;;;1999.90;999.90;;;10.00;99.90;;;;;;5029407;28;20477;-69
2023/02/19 08:39:10;;;;;;;1999.90;999.90;;;10.10;99.90;;;;;;5029512;28;20457;-67
2023/02/19 08:41:36;;;;;;;1999.90;999.90;;;10.10;99.90;;;;;;5029462;28;20469;-70
2023/02/19 08:44:03;;;;;;;1999.90;999.90;;;10.10;99.90;;;;;;5028220;28;20548;-69
2023/02/19 08:46:30;;;;;;;1999.90;999.90;;;10.20;99.90;;;;;;5030634;28;20452;-68
2023/02/19 08:48:57;;;;;;;1999.90;999.90;;;10.20;99.90;;;;;;5029212;28;20449;-68
2023/02/19 08:51:25;;;;;;;1999.90;999.90;;;10.30;99.90;;;;;;5029297;28;20455;-70
2023/02/19 08:53:52;;;;;;;1999.90;999.90;;;10.30;99.90;;;;;;5028460;28;20455;-70
2023/02/19 08:56:18;;;;;;;1999.90;999.90;;;10.30;99.90;;;;;;5028974;28;20488;-70
2023/02/19 08:58:46;;;;;;;1999.90;999.90;;;10.40;99.90;;;;;;5029574;28;20460;-72
2023/02/19 09:01:17;;;;;;;1999.90;999.90;;;10.30;99.90;;;;;;5029508;28;20457;-69
2023/02/19 09:03:44;;;;;;;1999.90;999.90;;;10.40;99.90;;;;;;5028958;28;20948;-71
2023/02/19 09:06:14;;;;;;;1999.90;999.90;;;10.40;99.90;;;;;;5029284;28;20452;-67
2023/02/19 09:08:42;;;;;;;1999.90;999.90;;;10.40;99.90;;;;;;5028727;28;20453;-69
2023/02/19 09:11:09;;;;;;;1999.90;999.90;;;10.50;99.90;;;;;;5029077;28;21141;-67
2023/02/19 09:13:36;;;;;;;1999.90;999.90;;;10.40;99.90;;;;;;5027896;28;20456;-68
2023/02/19 09:16:03;;;;;;;1999.90;999.90;;;10.50;99.90;;;;;;5029286;28;20484;-69
2023/02/19 09:18:30;;;;;;;1999.90;999.90;;;10.60;99.90;;;;;;5029307;28;20441;-67
2023/02/19 09:21:00;;;;;;;1999.90;999.90;;;10.60;99.90;;;;;;5031504;28;20445;-65
2023/02/19 09:23:27;;;;;;;1999.90;999.90;;;10.60;99.90;;;;;;5023627;28;20519;-67
2023/02/19 09:25:59;;;;;;;1999.90;999.90;;;10.60;99.90;;;;;;5026475;28;20447;-67
2023/02/19 09:28:26;;;;;;;1999.90;999.90;;;10.70;99.90;;;;;;5023345;28;20836;-67
2023/02/19 09:30:53;;;;;;;1999.90;999.90;;;10.80;99.90;;;;;;5027569;28;20920;-67
2023/02/19 09:33:20;;;;;;;1999.90;999.90;;;10.70;99.90;;;;;;5025980;28;20469;-67
2023/02/19 09:35:47;;;;;;;1999.90;999.90;;;10.80;99.90;;;;;;5033814;28;20491;-67
2023/02/19 09:38:13;;;;;;;1999.90;999.90;;;10.80;99.90;;;;;;5048194;28;20440;-66
2023/02/19 09:40:40;;;;;;;1999.90;999.90;;;10.80;99.90;;;;;;5048671;28;20452;-67
2023/02/19 09:43:15;;;;;;;1999.90;999.90;;;10.80;99.90;;;;;;5047568;28;20825;-67
2023/02/19 09:45:42;;;;;;;1999.90;999.90;;;10.90;99.90;;;;;;5048627;28;20449;-66
2023/02/19 09:48:10;;;;;;;1999.90;999.90;;;10.90;99.90;;;;;;5048554;28;20944;-67
2023/02/19 09:50:39;;;;;;;1999.90;999.90;;;11.00;99.90;;;;;;5048442;28;20454;-68
2023/02/19 09:53:15;;;;;;;1999.90;999.90;;;11.00;99.90;;;;;;5030597;28;20503;-65
2023/02/19 09:55:43;;;;;;;1999.90;999.90;;;11.00;99.90;;;;;;5009085;28;20480;-68
2023/02/19 09:58:23;;;;;;;1999.90;999.90;;;11.10;99.90;;;;;;5017056;28;20444;-66
2023/02/19 10:00:50;;;;;;;1999.90;999.90;;;11.10;99.90;;;;;;5048619;28;20447;-68
2023/02/19 10:03:29;;;;;;;1999.90;999.90;;;11.30;99.90;;;;;;5032374;28;20502;-68
2023/02/19 10:05:58;;;;;;;1999.90;999.90;;;11.40;99.90;;;;;;5025701;28;20463;-67
2023/02/19 10:08:25;;;;;;;1999.90;999.90;;;11.60;99.90;;;;;;5024275;28;20448;-68
2023/02/19 10:10:53;;;;;;;1999.90;999.90;;;11.70;99.90;;;;;;5026728;28;20452;-69
2023/02/19 10:13:23;;;;;;;1999.90;999.90;;;11.70;99.90;;;;;;5025350;28;20469;-69
2023/02/19 10:15:52;;;;;;;1999.90;999.90;;;11.80;99.90;;;;;;5026398;28;20478;-67
2023/02/19 10:18:22;;;;;;;1999.90;999.90;;;12.00;99.90;;;;;;5026797;28;20441;-67
2023/02/19 10:20:50;;;;;;;1999.90;999.90;;;12.10;99.90;;;;;;5027868;28;20958;-69
2023/02/19 10:23:17;;;;;;;1999.90;999.90;;;12.00;99.90;;;;;;5029062;28;20468;-67
2023/02/19 10:25:47;;;;;;;1999.90;999.90;;;12.10;99.90;;;;;;5028290;28;20475;-67
2023/02/19 10:28:17;;;;;;;1999.90;999.90;;;12.10;99.90;;;;;;5029682;28;20456;-67
2023/02/19 10:30:51;;;;;;;1999.90;999.90;;;12.00;99.90;;;;;;5032342;28;20452;-67
2023/02/19 10:33:18;;;;;;;1999.90;999.90;;;12.00;99.90;;;;;;5028231;28;20548;-67
2023/02/19 10:35:54;;;;;;;1999.90;999.90;;;12.00;99.90;;;;;;5029692;28;20575;-67
2023/02/19 10:38:24;;;;;;;1999.90;999.90;;;12.00;99.90;;;;;;5030511;28;20456;-68
2023/02/19 10:41:00;;;;;;;1999.90;999.90;;;11.90;99.90;;;;;;5030305;28;21083;-67
2023/02/19 10:43:32;;;;;;;1999.90;999.90;;;11.70;99.90;;;;;;5028527;28;20471;-66
2023/02/19 10:46:03;;;;;;;1999.90;999.90;;;11.90;99.90;;;;;;5030722;28;20468;-66
2023/02/19 10:48:33;;;;;;;1999.90;999.90;;;11.90;99.90;;;;;;5029641;28;20449;-67
2023/02/19 10:51:04;;;;;;;1999.90;999.90;;;11.90;99.90;;;;;;5029388;28;20502;-68
2023/02/19 10:53:44;;;;;;;1999.90;999.90;;;11.80;99.90;;;;;;5025572;28;20881;-67
2023/02/19 10:56:14;;;;;;;1999.90;999.90;;;11.90;99.90;;;;;;5027427;28;20588;-67
2023/02/19 10:58:43;;;;;;;1999.90;999.90;;;12.00;99.90;;;;;;5029801;28;20456;-67
2023/02/19 11:01:22;;;;;;;1999.90;999.90;;;12.30;99.90;;;;;;5029443;28;20547;-66
2023/02/19 11:03:51;;;;;;;1999.90;999.90;;;12.40;99.90;;;;;;5028375;28;20897;-68
2023/02/19 11:06:20;;;;;;;1999.90;999.90;;;12.50;99.90;;;;;;5027428;28;20845;-67
2023/02/19 11:08:50;;;;;;;1999.90;999.90;;;12.50;99.90;;;;;;5027708;28;20469;-67
2023/02/19 11:11:27;;;;;;;1999.90;999.90;;;12.70;99.90;;;;;;5028675;28;20437;-68
2023/02/19 11:13:55;;;;;;;1999.90;999.90;;;12.50;99.90;;;;;;5026472;28;20480;-68
2023/02/19 11:16:24;;;;;;;1999.90;999.90;;;12.40;99.90;;;;;;5030626;28;20492;-69
2023/02/19 11:18:56;;;;;;;1999.90;999.90;;;12.10;99.90;;;;;;5031213;28;20449;-68
2023/02/19 11:21:31;;;;;;;1999.90;999.90;;;12.10;99.90;;;;;;5030770;28;20483;-66
2023/02/19 11:23:59;;;;;;;1999.90;999.90;;;12.10;99.90;;;;;;5027164;28;20535;-67
2023/02/19 11:26:28;;;;;;;1999.90;999.90;;;12.00;99.90;;;;;;5031347;28;20445;-69
2023/02/19 11:28:59;;;;;;;1999.90;999.90;;;11.70;99.90;;;;;;5026555;28;20565;-67
2023/02/19 11:31:30;;;;;;;1999.90;999.90;;;11.70;99.90;;;;;;5028878;28;20456;-66
2023/02/19 11:33:59;;;;;;;1999.90;999.90;;;11.70;99.90;;;;;;5028614;28;20456;-66
2023/02/19 11:36:31;;;;;;;1999.90;999.90;;;11.70;99.90;;;;;;5028212;28;20488;-68
2023/02/19 11:39:00;;;;;;;1999.90;999.90;;;11.70;99.90;;;;;;5027630;28;20488;-67
2023/02/19 11:41:53;;;;;;;1999.90;999.90;;;11.70;99.90;;;;;;5029291;28;20495;-66
2023/02/19 11:44:33;;;;;;;1999.90;999.90;;;11.80;99.90;;;;;;5031657;28;20445;-68
2023/02/19 11:47:22;;;;;;;1999.90;999.90;;;12.70;99.90;;;;;;5024306;28;20445;-68
2023/02/19 11:49:57;;;;;;;1999.90;999.90;;;12.90;99.90;;;;;;5022148;28;20471;-68
2023/02/19 11:52:33;;;;;;;1999.90;999.90;;;12.50;99.90;;;;;;5020832;28;20558;-70
2023/02/19 11:55:10;;;;;;;1999.90;999.90;;;12.20;99.90;;;;;;5022610;28;20465;-67
2023/02/19 11:57:42;;;;;;;1999.90;999.90;;;12.10;99.90;;;;;;5023143;28;20492;-70
2023/02/19 12:00:23;;;;;;;1999.90;999.90;;;12.00;99.90;;;;;;5022557;28;20456;-69
2023/02/19 12:03:27;;;;;;;1999.90;999.90;;;12.00;99.90;;;;;;5023625;28;20468;-67
2023/02/19 12:06:16;;;;;;;1999.90;999.90;;;12.10;99.90;;;;;;4990841;28;20455;-69
2023/02/19 12:09:22;;;;;;;1999.90;999.90;;;12.20;99.90;;;;;;5022434;28;20453;-68
2023/02/19 12:12:07;;;;;;;1999.90;999.90;;;12.10;99.90;;;;;;5022714;28;20471;-68
2023/02/19 12:15:13;;;;;;;1999.90;999.90;;;12.20;99.90;;;;;;5023081;28;20456;-69
2023/02/19 12:17:54;;;;;;;1999.90;999.90;;;12.20;99.90;;;;;;5019892;28;20495;-71
2023/02/19 12:20:31;;;;;;;1999.90;999.90;;;12.30;99.90;;;;;;5020459;28;20475;-68
2023/02/19 12:23:17;;;;;;;1999.90;999.90;;;12.30;99.90;;;;;;5016758;28;20472;-67
2023/02/19 12:25:54;;;;;;;1999.90;999.90;;;12.60;99.90;;;;;;5023894;28;20453;-69
2023/02/19 12:28:47;;;;;;;1999.90;999.90;;;12.50;99.90;;;;;;5025136;28;20445;-68
2023/02/19 12:31:40;;;;;;;1999.90;999.90;;;12.10;99.90;;;;;;5024823;28;20473;-69
2023/02/19 12:34:35;;;;;;;1999.90;999.90;;;11.90;99.90;;;;;;5021887;28;20464;-68
2023/02/19 12:37:16;;;;;;;1999.90;999.90;;;11.90;99.90;;;;;;5007612;28;20488;-67
2023/02/19 12:39:49;;;;;;;1999.90;999.90;;;11.80;99.90;;;;;;5023796;28;20479;-68
2023/02/19 12:42:34;;;;;;;1999.90;999.90;;;11.90;99.90;;;;;;5022211;28;20508;-69
2023/02/19 12:45:06;;;;;;;1999.90;999.90;;;12.10;99.90;;;;;;5022893;28;20445;-68
2023/02/19 12:47:37;;;;;;;1999.90;999.90;;;12.30;99.90;;;;;;5025296;28;20437;-68